sensor_id;sensor_type;location;lat;lon;timestamp;P1;durP1;ratioP1;P2;durP2;ratioP2
15474;SDS011;7839;50.462;9.678;2022-08-03T00:00:04;0.60;;;0.60;;
15474;SDS011;7839;50.462;9.678;2022-08-03T00:06:45;0.45;;;0.45;;
15474;SDS011;7839;50.462;9.678;2022-08-03T00:13:26;0.50;;;0.50;;
15474;SDS011;7839;50.462;9.678;2022-08-03T00:20:06;0.47;;;0.47;;
15474;SDS011;7839;50.462;9.678;2022-08-03T00:26:46;0.40;;;0.40;;
15474;SDS011;7839;50.462;9.678;2022-08-03T00:33:27;0.40;;;0.40;;
15474;SDS011;7839;50.462;9.678;2022-08-03T00:40:10;0.38;;;0.38;;
15474;SDS011;7839;50.462;9.678;2022-08-03T00:46:51;0.65;;;0.65;;
15474;SDS011;7839;50.462;9.678;2022-08-03T00:53:31;0.50;;;0.50;;
15474;SDS011;7839;50.462;9.678;2022-08-03T01:00:14;0.60;;;0.60;;
15474;SDS011;7839;50.462;9.678;2022-08-03T01:07:02;0.40;;;0.40;;
15474;SDS011;7839;50.462;9.678;2022-08-03T01:20:46;0.40;;;0.40;;
15474;SDS011;7839;50.462;9.678;2022-08-03T01:27:35;0.40;;;0.40;;
15474;SDS011;7839;50.462;9.678;2022-08-03T01:34:18;0.40;;;0.40;;
15474;SDS011;7839;50.462;9.678;2022-08-03T01:41:18;0.35;;;0.35;;
15474;SDS011;7839;50.462;9.678;2022-08-03T01:47:59;0.60;;;0.60;;
15474;SDS011;7839;50.462;9.678;2022-08-03T01:54:41;0.35;;;0.35;;
15474;SDS011;7839;50.462;9.678;2022-08-03T02:01:22;0.30;;;0.30;;
15474;SDS011;7839;50.462;9.678;2022-08-03T02:08:03;0.40;;;0.40;;
15474;SDS011;7839;50.462;9.678;2022-08-03T02:14:44;0.50;;;0.50;;
15474;SDS011;7839;50.462;9.678;2022-08-03T02:21:25;0.55;;;0.55;;
15474;SDS011;7839;50.462;9.678;2022-08-03T02:28:09;0.50;;;0.50;;
15474;SDS011;7839;50.462;9.678;2022-08-03T02:34:50;0.28;;;0.28;;
15474;SDS011;7839;50.462;9.678;2022-08-03T02:41:35;0.43;;;0.40;;
15474;SDS011;7839;50.462;9.678;2022-08-03T02:48:20;0.30;;;0.30;;
15474;SDS011;7839;50.462;9.678;2022-08-03T02:55:02;0.50;;;0.50;;
15474;SDS011;7839;50.462;9.678;2022-08-03T03:01:43;0.40;;;0.40;;
15474;SDS011;7839;50.462;9.678;2022-08-03T03:08:24;0.85;;;0.40;;
15474;SDS011;7839;50.462;9.678;2022-08-03T03:15:05;0.40;;;0.40;;
15474;SDS011;7839;50.462;9.678;2022-08-03T03:21:46;0.60;;;0.60;;
15474;SDS011;7839;50.462;9.678;2022-08-03T03:28:26;0.30;;;0.30;;
15474;SDS011;7839;50.462;9.678;2022-08-03T03:35:07;0.30;;;0.30;;
15474;SDS011;7839;50.462;9.678;2022-08-03T03:41:48;0.47;;;0.47;;
15474;SDS011;7839;50.462;9.678;2022-08-03T03:48:29;0.57;;;0.57;;
15474;SDS011;7839;50.462;9.678;2022-08-03T03:55:09;0.30;;;0.30;;
15474;SDS011;7839;50.462;9.678;2022-08-03T04:01:49;0.43;;;0.43;;
15474;SDS011;7839;50.462;9.678;2022-08-03T04:08:31;0.50;;;0.50;;
15474;SDS011;7839;50.462;9.678;2022-08-03T04:15:30;0.20;;;0.20;;
15474;SDS011;7839;50.462;9.678;2022-08-03T04:22:13;0.40;;;0.40;;
15474;SDS011;7839;50.462;9.678;2022-08-03T04:28:56;0.30;;;0.30;;
15474;SDS011;7839;50.462;9.678;2022-08-03T04:35:39;0.40;;;0.40;;
15474;SDS011;7839;50.462;9.678;2022-08-03T04:42:22;0.47;;;0.40;;
15474;SDS011;7839;50.462;9.678;2022-08-03T04:49:04;0.40;;;0.40;;
15474;SDS011;7839;50.462;9.678;2022-08-03T04:55:46;0.30;;;0.30;;
15474;SDS011;7839;50.462;9.678;2022-08-03T05:02:27;0.38;;;0.38;;
15474;SDS011;7839;50.462;9.678;2022-08-03T05:09:07;0.43;;;0.43;;
15474;SDS011;7839;50.462;9.678;2022-08-03T05:15:47;0.47;;;0.47;;
15474;SDS011;7839;50.462;9.678;2022-08-03T05:22:28;0.40;;;0.40;;
15474;SDS011;7839;50.462;9.678;2022-08-03T05:29:08;0.40;;;0.40;;
15474;SDS011;7839;50.462;9.678;2022-08-03T05:35:48;0.50;;;0.50;;
15474;SDS011;7839;50.462;9.678;2022-08-03T05:42:28;0.52;;;0.52;;
15474;SDS011;7839;50.462;9.678;2022-08-03T05:49:09;0.40;;;0.40;;
15474;SDS011;7839;50.462;9.678;2022-08-03T05:55:49;0.38;;;0.38;;
15474;SDS011;7839;50.462;9.678;2022-08-03T06:02:29;0.40;;;0.40;;
15474;SDS011;7839;50.462;9.678;2022-08-03T06:09:10;0.47;;;0.47;;
15474;SDS011;7839;50.462;9.678;2022-08-03T06:15:50;0.40;;;0.40;;
15474;SDS011;7839;50.462;9.678;2022-08-03T06:22:31;0.40;;;0.40;;
15474;SDS011;7839;50.462;9.678;2022-08-03T06:29:11;1.10;;;0.40;;
15474;SDS011;7839;50.462;9.678;2022-08-03T06:35:51;0.50;;;0.50;;
15474;SDS011;7839;50.462;9.678;2022-08-03T06:42:31;0.60;;;0.60;;
15474;SDS011;7839;50.462;9.678;2022-08-03T06:49:12;0.60;;;0.60;;
15474;SDS011;7839;50.462;9.678;2022-08-03T06:55:52;0.70;;;0.70;;
15474;SDS011;7839;50.462;9.678;2022-08-03T07:02:32;2.20;;;2.10;;
15474;SDS011;7839;50.462;9.678;2022-08-03T07:09:12;0.77;;;0.77;;
15474;SDS011;7839;50.462;9.678;2022-08-03T07:15:58;0.50;;;0.50;;
15474;SDS011;7839;50.462;9.678;2022-08-03T07:22:38;2.30;;;2.13;;
15474;SDS011;7839;50.462;9.678;2022-08-03T07:29:18;4.25;;;2.10;;
15474;SDS011;7839;50.462;9.678;2022-08-03T07:35:59;2.63;;;2.40;;
15474;SDS011;7839;50.462;9.678;2022-08-03T07:42:39;2.85;;;2.30;;
15474;SDS011;7839;50.462;9.678;2022-08-03T07:49:19;3.92;;;1.95;;
15474;SDS011;7839;50.462;9.678;2022-08-03T07:55:59;1.83;;;1.73;;
15474;SDS011;7839;50.462;9.678;2022-08-03T08:02:40;5.35;;;2.08;;
15474;SDS011;7839;50.462;9.678;2022-08-03T08:09:20;2.53;;;1.90;;
15474;SDS011;7839;50.462;9.678;2022-08-03T08:16:01;2.70;;;1.67;;
15474;SDS011;7839;50.462;9.678;2022-08-03T08:22:41;2.72;;;1.95;;
15474;SDS011;7839;50.462;9.678;2022-08-03T08:29:21;2.10;;;1.80;;
15474;SDS011;7839;50.462;9.678;2022-08-03T08:36:02;4.72;;;1.80;;
15474;SDS011;7839;50.462;9.678;2022-08-03T08:42:42;2.25;;;1.75;;
15474;SDS011;7839;50.462;9.678;2022-08-03T08:49:23;2.83;;;1.77;;
15474;SDS011;7839;50.462;9.678;2022-08-03T08:56:06;7.10;;;1.90;;
15474;SDS011;7839;50.462;9.678;2022-08-03T09:02:50;1.55;;;1.50;;
15474;SDS011;7839;50.462;9.678;2022-08-03T09:09:30;3.30;;;1.50;;
15474;SDS011;7839;50.462;9.678;2022-08-03T09:16:15;1.50;;;1.40;;
15474;SDS011;7839;50.462;9.678;2022-08-03T09:29:35;2.55;;;1.30;;
15474;SDS011;7839;50.462;9.678;2022-08-03T09:36:34;2.42;;;1.45;;
15474;SDS011;7839;50.462;9.678;2022-08-03T09:43:15;1.67;;;1.60;;
15474;SDS011;7839;50.462;9.678;2022-08-03T09:49:57;2.47;;;1.30;;
15474;SDS011;7839;50.462;9.678;2022-08-03T10:03:17;1.88;;;1.77;;
15474;SDS011;7839;50.462;9.678;2022-08-03T10:09:59;2.05;;;1.88;;
15474;SDS011;7839;50.462;9.678;2022-08-03T10:16:41;1.83;;;1.73;;
15474;SDS011;7839;50.462;9.678;2022-08-03T10:23:21;2.58;;;1.20;;
15474;SDS011;7839;50.462;9.678;2022-08-03T10:30:03;1.55;;;1.50;;
15474;SDS011;7839;50.462;9.678;2022-08-03T10:36:44;2.08;;;1.98;;
15474;SDS011;7839;50.462;9.678;2022-08-03T10:43:25;1.65;;;1.55;;
15474;SDS011;7839;50.462;9.678;2022-08-03T10:50:06;2.80;;;1.73;;
15474;SDS011;7839;50.462;9.678;2022-08-03T10:56:47;1.75;;;1.65;;
15474;SDS011;7839;50.462;9.678;2022-08-03T11:10:32;2.20;;;2.03;;
15474;SDS011;7839;50.462;9.678;2022-08-03T11:17:12;2.00;;;1.33;;
15474;SDS011;7839;50.462;9.678;2022-08-03T11:23:52;1.75;;;1.65;;
15474;SDS011;7839;50.462;9.678;2022-08-03T11:30:33;3.58;;;1.50;;
15474;SDS011;7839;50.462;9.678;2022-08-03T11:37:20;2.42;;;1.58;;
15474;SDS011;7839;50.462;9.678;2022-08-03T11:44:01;1.60;;;1.60;;
15474;SDS011;7839;50.462;9.678;2022-08-03T11:50:42;1.38;;;1.20;;
15474;SDS011;7839;50.462;9.678;2022-08-03T11:57:27;1.45;;;1.40;;
15474;SDS011;7839;50.462;9.678;2022-08-03T12:04:08;2.45;;;1.40;;
15474;SDS011;7839;50.462;9.678;2022-08-03T12:10:50;1.42;;;1.42;;
15474;SDS011;7839;50.462;9.678;2022-08-03T12:17:37;2.38;;;1.73;;
15474;SDS011;7839;50.462;9.678;2022-08-03T12:24:18;1.10;;;1.10;;
15474;SDS011;7839;50.462;9.678;2022-08-03T12:31:05;1.35;;;1.35;;
15474;SDS011;7839;50.462;9.678;2022-08-03T12:37:46;1.15;;;1.15;;
15474;SDS011;7839;50.462;9.678;2022-08-03T12:44:30;1.55;;;1.45;;
15474;SDS011;7839;50.462;9.678;2022-08-03T12:51:11;1.60;;;1.50;;
15474;SDS011;7839;50.462;9.678;2022-08-03T12:57:51;1.58;;;1.20;;
15474;SDS011;7839;50.462;9.678;2022-08-03T13:04:34;1.70;;;1.33;;
15474;SDS011;7839;50.462;9.678;2022-08-03T13:11:21;1.08;;;1.08;;
15474;SDS011;7839;50.462;9.678;2022-08-03T13:18:01;1.42;;;1.33;;
15474;SDS011;7839;50.462;9.678;2022-08-03T13:24:43;1.60;;;1.50;;
15474;SDS011;7839;50.462;9.678;2022-08-03T13:31:23;1.30;;;1.20;;
15474;SDS011;7839;50.462;9.678;2022-08-03T13:38:04;2.33;;;1.20;;
15474;SDS011;7839;50.462;9.678;2022-08-03T13:44:44;1.05;;;1.05;;
15474;SDS011;7839;50.462;9.678;2022-08-03T13:51:24;1.40;;;1.30;;
15474;SDS011;7839;50.462;9.678;2022-08-03T13:58:04;1.48;;;1.48;;
15474;SDS011;7839;50.462;9.678;2022-08-03T14:04:46;1.40;;;1.40;;
15474;SDS011;7839;50.462;9.678;2022-08-03T14:11:27;2.10;;;1.23;;
15474;SDS011;7839;50.462;9.678;2022-08-03T14:18:07;3.03;;;1.40;;
15474;SDS011;7839;50.462;9.678;2022-08-03T14:24:48;1.40;;;1.30;;
15474;SDS011;7839;50.462;9.678;2022-08-03T14:31:28;1.20;;;1.10;;
15474;SDS011;7839;50.462;9.678;2022-08-03T14:38:08;1.20;;;1.20;;
15474;SDS011;7839;50.462;9.678;2022-08-03T14:44:48;1.30;;;1.20;;
15474;SDS011;7839;50.462;9.678;2022-08-03T14:51:29;1.40;;;1.40;;
15474;SDS011;7839;50.462;9.678;2022-08-03T14:58:09;1.27;;;1.27;;
15474;SDS011;7839;50.462;9.678;2022-08-03T15:04:49;1.63;;;1.38;;
15474;SDS011;7839;50.462;9.678;2022-08-03T15:11:29;1.88;;;1.38;;
15474;SDS011;7839;50.462;9.678;2022-08-03T15:18:10;2.30;;;1.80;;
15474;SDS011;7839;50.462;9.678;2022-08-03T15:24:50;3.53;;;1.50;;
15474;SDS011;7839;50.462;9.678;2022-08-03T15:31:30;1.20;;;1.20;;
15474;SDS011;7839;50.462;9.678;2022-08-03T15:38:10;2.15;;;1.60;;
15474;SDS011;7839;50.462;9.678;2022-08-03T15:44:51;1.48;;;1.38;;
15474;SDS011;7839;50.462;9.678;2022-08-03T15:51:32;1.92;;;1.50;;
15474;SDS011;7839;50.462;9.678;2022-08-03T15:58:12;1.63;;;1.23;;
15474;SDS011;7839;50.462;9.678;2022-08-03T16:04:52;3.70;;;1.48;;
15474;SDS011;7839;50.462;9.678;2022-08-03T16:11:33;1.52;;;1.40;;
15474;SDS011;7839;50.462;9.678;2022-08-03T16:18:13;1.52;;;1.40;;
15474;SDS011;7839;50.462;9.678;2022-08-03T16:24:53;1.33;;;1.33;;
15474;SDS011;7839;50.462;9.678;2022-08-03T16:31:33;1.75;;;1.63;;
15474;SDS011;7839;50.462;9.678;2022-08-03T16:38:14;2.08;;;1.48;;
15474;SDS011;7839;50.462;9.678;2022-08-03T16:44:54;2.92;;;1.30;;
15474;SDS011;7839;50.462;9.678;2022-08-03T16:51:34;1.60;;;1.50;;
15474;SDS011;7839;50.462;9.678;2022-08-03T16:58:14;3.42;;;1.38;;
15474;SDS011;7839;50.462;9.678;2022-08-03T17:04:57;1.63;;;1.40;;
15474;SDS011;7839;50.462;9.678;2022-08-03T17:11:38;3.42;;;1.25;;
15474;SDS011;7839;50.462;9.678;2022-08-03T17:18:19;1.30;;;1.20;;
15474;SDS011;7839;50.462;9.678;2022-08-03T17:25:07;2.78;;;1.70;;
15474;SDS011;7839;50.462;9.678;2022-08-03T17:31:51;3.53;;;1.30;;
15474;SDS011;7839;50.462;9.678;2022-08-03T17:38:31;2.40;;;1.33;;
15474;SDS011;7839;50.462;9.678;2022-08-03T17:45:12;5.03;;;1.42;;
15474;SDS011;7839;50.462;9.678;2022-08-03T17:51:55;1.33;;;1.33;;
15474;SDS011;7839;50.462;9.678;2022-08-03T18:05:34;1.45;;;1.40;;
15474;SDS011;7839;50.462;9.678;2022-08-03T18:12:24;1.95;;;1.55;;
15474;SDS011;7839;50.462;9.678;2022-08-03T18:19:05;1.55;;;1.40;;
15474;SDS011;7839;50.462;9.678;2022-08-03T18:25:45;1.65;;;1.65;;
15474;SDS011;7839;50.462;9.678;2022-08-03T18:32:25;1.73;;;1.65;;
15474;SDS011;7839;50.462;9.678;2022-08-03T18:39:08;2.00;;;1.90;;
15474;SDS011;7839;50.462;9.678;2022-08-03T18:45:50;1.90;;;1.80;;
15474;SDS011;7839;50.462;9.678;2022-08-03T18:59:29;1.83;;;1.73;;
15474;SDS011;7839;50.462;9.678;2022-08-03T19:06:17;2.05;;;1.92;;
15474;SDS011;7839;50.462;9.678;2022-08-03T19:13:03;1.88;;;1.77;;
15474;SDS011;7839;50.462;9.678;2022-08-03T19:19:47;2.00;;;1.90;;
15474;SDS011;7839;50.462;9.678;2022-08-03T19:26:28;2.00;;;1.90;;
15474;SDS011;7839;50.462;9.678;2022-08-03T19:33:09;2.25;;;2.15;;
15474;SDS011;7839;50.462;9.678;2022-08-03T19:39:50;1.90;;;1.80;;
15474;SDS011;7839;50.462;9.678;2022-08-03T19:46:30;2.05;;;1.95;;
15474;SDS011;7839;50.462;9.678;2022-08-03T19:53:13;1.92;;;1.83;;
15474;SDS011;7839;50.462;9.678;2022-08-03T19:59:54;2.30;;;2.20;;
15474;SDS011;7839;50.462;9.678;2022-08-03T20:06:35;2.20;;;2.10;;
15474;SDS011;7839;50.462;9.678;2022-08-03T20:13:15;1.90;;;1.80;;
15474;SDS011;7839;50.462;9.678;2022-08-03T20:19:56;1.92;;;1.83;;
15474;SDS011;7839;50.462;9.678;2022-08-03T20:26:36;1.92;;;1.83;;
15474;SDS011;7839;50.462;9.678;2022-08-03T20:33:17;1.90;;;1.80;;
15474;SDS011;7839;50.462;9.678;2022-08-03T20:39:57;2.00;;;1.90;;
15474;SDS011;7839;50.462;9.678;2022-08-03T20:46:37;1.65;;;1.65;;
15474;SDS011;7839;50.462;9.678;2022-08-03T20:53:17;1.83;;;1.73;;
15474;SDS011;7839;50.462;9.678;2022-08-03T20:59:58;1.90;;;1.80;;
15474;SDS011;7839;50.462;9.678;2022-08-03T21:06:48;1.85;;;1.75;;
15474;SDS011;7839;50.462;9.678;2022-08-03T21:13:54;1.80;;;1.70;;
15474;SDS011;7839;50.462;9.678;2022-08-03T21:20:34;2.65;;;2.10;;
15474;SDS011;7839;50.462;9.678;2022-08-03T21:27:15;1.70;;;1.60;;
15474;SDS011;7839;50.462;9.678;2022-08-03T21:33:56;1.70;;;1.35;;
15474;SDS011;7839;50.462;9.678;2022-08-03T21:40:37;1.30;;;1.30;;
15474;SDS011;7839;50.462;9.678;2022-08-03T21:47:18;1.45;;;1.40;;
15474;SDS011;7839;50.462;9.678;2022-08-03T21:53:58;1.42;;;1.42;;
15474;SDS011;7839;50.462;9.678;2022-08-03T22:00:40;1.50;;;1.40;;
15474;SDS011;7839;50.462;9.678;2022-08-03T22:07:22;1.00;;;1.00;;
15474;SDS011;7839;50.462;9.678;2022-08-03T22:14:03;1.40;;;1.40;;
15474;SDS011;7839;50.462;9.678;2022-08-03T22:20:47;1.20;;;1.20;;
15474;SDS011;7839;50.462;9.678;2022-08-03T22:27:28;1.20;;;1.20;;
15474;SDS011;7839;50.462;9.678;2022-08-03T22:34:09;1.40;;;1.40;;
15474;SDS011;7839;50.462;9.678;2022-08-03T22:40:49;1.15;;;1.15;;
15474;SDS011;7839;50.462;9.678;2022-08-03T22:47:31;1.10;;;1.10;;
15474;SDS011;7839;50.462;9.678;2022-08-03T22:54:11;1.05;;;1.05;;
15474;SDS011;7839;50.462;9.678;2022-08-03T23:00:53;1.10;;;1.10;;
15474;SDS011;7839;50.462;9.678;2022-08-03T23:07:35;0.90;;;0.90;;
15474;SDS011;7839;50.462;9.678;2022-08-03T23:14:17;0.80;;;0.80;;
15474;SDS011;7839;50.462;9.678;2022-08-03T23:20:58;0.77;;;0.77;;
15474;SDS011;7839;50.462;9.678;2022-08-03T23:27:40;2.75;;;2.03;;
15474;SDS011;7839;50.462;9.678;2022-08-03T23:34:21;0.90;;;0.90;;
15474;SDS011;7839;50.462;9.678;2022-08-03T23:41:20;0.95;;;0.82;;
15474;SDS011;7839;50.462;9.678;2022-08-03T23:48:01;1.00;;;1.00;;
